Terminal Aerodrome Forecast
Issued by NWS

Current Version | Previous Version | Graphics & Text | Print | Product List | Glossary On
Versions: 1 2 3 4 5 6 7 8 9 10 11 12 13 14 15 16
000
FTUS41 KILN 221024 AAC
TAFLCK
TAF AMD
KLCK 221024Z 2210/2306 32006KT P6SM OVC035
     FM221500 34010KT P6SM SCT050
     FM222300 VRB03KT P6SM SCT250=

USA.gov is the U.S. government's official web portal to all federal, state and local government web resources and services.